Time;durP1;ratioP1;P1;durP2;ratioP2;P2;SDS_P1;SDS_P2;PMS_P1;PMS_P2;Temp;Humidity;BMP_temperature;BMP_pressure;BME280_temperature;BME280_humidity;BME280_pressure;Samples;Min_cycle;Max_cycle;Signal;HPM_P1;HPM_P2
2024/02/20 00:00:02;;;;;;;8.68;5.70;;;8.20;25.50;;;;;;7374710;19;20348;-73
2024/02/20 00:02:42;;;;;;;10.50;6.13;;;8.30;28.10;;;;;;7367874;19;20011;-73
2024/02/20 00:05:12;;;;;;;10.27;6.18;;;8.30;30.10;;;;;;7371738;19;20097;-73
2024/02/20 00:07:43;;;;;;;9.10;5.72;;;8.30;27.30;;;;;;7371031;19;20018;-72
2024/02/20 00:10:16;;;;;;;10.30;6.25;;;8.30;23.30;;;;;;7373072;19;20445;-72
2024/02/20 00:12:47;;;;;;;11.18;6.53;;;8.30;20.50;;;;;;7371133;19;20008;-72
2024/02/20 00:15:17;;;;;;;11.80;7.45;;;8.30;22.70;;;;;;7370551;19;20042;-72
2024/02/20 00:17:47;;;;;;;13.73;8.35;;;8.20;17.50;;;;;;7371572;19;20018;-73
2024/02/20 00:20:18;;;;;;;10.93;6.28;;;8.30;19.60;;;;;;7372190;19;20093;-74
2024/02/20 00:22:48;;;;;;;11.48;7.15;;;8.30;18.30;;;;;;7369809;19;20010;-72
2024/02/20 00:25:20;;;;;;;8.77;7.07;;;8.30;22.60;;;;;;7373013;19;20018;-71
2024/02/20 00:27:50;;;;;;;12.13;6.78;;;8.30;21.60;;;;;;7372938;19;20017;-73
2024/02/20 00:30:21;;;;;;;13.38;6.47;;;8.30;11.10;;;;;;7372611;19;20018;-72
2024/02/20 00:32:51;;;;;;;13.20;6.80;;;8.30;10.60;;;;;;7370757;19;20006;-72
2024/02/20 00:35:22;;;;;;;12.27;7.00;;;8.30;7.00;;;;;;7371908;19;20018;-72
2024/02/20 00:37:53;;;;;;;11.38;6.38;;;8.30;4.60;;;;;;7370258;19;20006;-72
2024/02/20 00:40:25;;;;;;;10.38;6.90;;;8.30;8.60;;;;;;7370879;19;20017;-70
2024/02/20 00:42:55;;;;;;;10.05;6.35;;;8.30;7.40;;;;;;7370229;19;20014;-72
2024/02/20 00:45:26;;;;;;;11.38;6.80;;;8.30;5.80;;;;;;7369737;19;20015;-72
2024/02/20 00:47:56;;;;;;;12.55;6.25;;;8.30;3.30;;;;;;7370052;19;20509;-73
2024/02/20 00:50:28;;;;;;;11.10;6.72;;;8.30;8.30;;;;;;7370954;19;20018;-72
2024/02/20 00:52:58;;;;;;;12.35;7.07;;;8.30;8.30;;;;;;7371328;19;20015;-72
2024/02/20 00:55:31;;;;;;;11.82;7.10;;;8.30;6.70;;;;;;7370106;19;20032;-72
2024/02/20 00:58:01;;;;;;;8.95;5.90;;;8.20;7.50;;;;;;7371430;19;20010;-72
2024/02/20 01:00:31;;;;;;;7.75;6.15;;;8.20;8.00;;;;;;7367816;19;20092;-71
2024/02/20 01:03:01;;;;;;;11.60;6.38;;;8.20;12.20;;;;;;7373362;19;20429;-71
2024/02/20 01:05:31;;;;;;;8.48;5.63;;;8.10;4.30;;;;;;7379351;19;20011;-73
2024/02/20 01:08:01;;;;;;;9.00;6.18;;;8.20;1.00;;;;;;7369965;19;20046;-71
2024/02/20 01:10:34;;;;;;;7.60;5.57;;;8.10;2.90;;;;;;7371019;19;20018;-71
2024/02/20 01:13:04;;;;;;;9.90;5.97;;;8.10;4.50;;;;;;7369120;19;20049;-71
2024/02/20 01:15:34;;;;;;;7.90;5.05;;;8.10;7.20;;;;;;7372348;19;20029;-72
2024/02/20 01:18:04;;;;;;;8.98;5.40;;;8.10;10.10;;;;;;7371090;19;20382;-71
2024/02/20 01:20:34;;;;;;;9.68;5.53;;;8.10;10.00;;;;;;7372404;19;20006;-71
2024/02/20 01:23:04;;;;;;;8.93;5.43;;;8.00;12.30;;;;;;7369502;19;20014;-71
2024/02/20 01:25:37;;;;;;;8.43;5.38;;;8.00;9.00;;;;;;7371024;19;20031;-72
2024/02/20 01:28:07;;;;;;;9.77;5.10;;;8.00;9.50;;;;;;7370481;19;20014;-72
2024/02/20 01:30:37;;;;;;;8.93;5.40;;;7.90;4.20;;;;;;7371391;19;20011;-72
2024/02/20 01:33:07;;;;;;;9.43;5.40;;;8.00;5.70;;;;;;7367425;19;20014;-72
2024/02/20 01:35:38;;;;;;;8.43;5.28;;;7.90;4.10;;;;;;7369397;19;20577;-72
2024/02/20 01:38:08;;;;;;;7.93;4.97;;;7.90;11.70;;;;;;7367128;19;20014;-73
2024/02/20 01:40:41;;;;;;;8.18;5.03;;;7.90;20.90;;;;;;7369334;19;20014;-72
2024/02/20 01:43:13;;;;;;;7.30;4.70;;;7.80;32.90;;;;;;7369583;19;20031;-73
2024/02/20 01:45:43;;;;;;;8.77;5.30;;;7.80;38.10;;;;;;7369009;19;20010;-72
2024/02/20 01:48:14;;;;;;;8.40;5.30;;;7.70;39.40;;;;;;7368547;19;20529;-73
2024/02/20 01:50:45;;;;;;;11.45;4.80;;;7.70;37.20;;;;;;7369641;19;20049;-74
2024/02/20 01:53:17;;;;;;;7.80;5.22;;;7.70;39.40;;;;;;7367367;19;20017;-73
2024/02/20 01:55:50;;;;;;;8.60;5.45;;;7.70;40.40;;;;;;7368108;19;20012;-73
2024/02/20 01:58:21;;;;;;;10.65;5.03;;;7.70;46.60;;;;;;7369206;19;20792;-72
2024/02/20 02:00:51;;;;;;;6.93;5.30;;;7.70;45.20;;;;;;7368711;19;20010;-72
2024/02/20 02:03:22;;;;;;;8.90;5.18;;;7.70;43.80;;;;;;7366815;19;20009;-74
2024/02/20 02:05:52;;;;;;;10.43;5.82;;;7.70;43.60;;;;;;7368023;19;20011;-73
2024/02/20 02:08:22;;;;;;;8.43;5.10;;;7.70;36.50;;;;;;7367964;19;20014;-72
2024/02/20 02:10:54;;;;;;;11.70;5.90;;;7.70;36.90;;;;;;7368549;19;20376;-72
2024/02/20 02:13:24;;;;;;;8.32;5.43;;;7.70;33.40;;;;;;7367339;19;20018;-72
2024/02/20 02:15:55;;;;;;;7.75;5.25;;;7.70;24.40;;;;;;7366975;19;20315;-73
2024/02/20 02:18:25;;;;;;;10.27;5.28;;;7.70;11.10;;;;;;7367279;19;20019;-73
2024/02/20 02:20:55;;;;;;;9.50;5.32;;;7.70;2.70;;;;;;7367558;19;20006;-71
2024/02/20 02:23:25;;;;;;;10.75;5.07;;;7.70;1.00;;;;;;7366642;19;20010;-73
2024/02/20 02:25:58;;;;;;;7.28;4.70;;;7.70;1.30;;;;;;7367641;19;20011;-72
2024/02/20 02:28:30;;;;;;;8.38;3.70;;;7.70;1.00;;;;;;7366744;19;20010;-72
2024/02/20 02:31:00;;;;;;;9.60;3.90;;;7.70;1.00;;;;;;7368414;19;20010;-72
2024/02/20 02:33:30;;;;;;;5.50;3.47;;;7.70;1.00;;;;;;7366058;19;20023;-73
2024/02/20 02:36:01;;;;;;;7.45;3.55;;;7.70;1.00;;;;;;7366875;19;20021;-72
2024/02/20 02:38:31;;;;;;;8.25;3.63;;;7.70;1.00;;;;;;7366652;19;20499;-72
2024/02/20 02:41:02;;;;;;;11.38;3.88;;;7.70;1.00;;;;;;7367691;19;20769;-72
2024/02/20 02:43:35;;;;;;;7.68;3.47;;;7.70;1.00;;;;;;7364512;19;20026;-72
2024/02/20 02:46:05;;;;;;;7.13;3.25;;;7.70;1.00;;;;;;7369912;19;20117;-73
2024/02/20 02:48:35;;;;;;;8.75;3.53;;;7.70;1.00;;;;;;7372965;19;20030;-72
2024/02/20 02:51:08;;;;;;;5.45;3.00;;;7.70;1.00;;;;;;7373910;19;20724;-73
2024/02/20 02:53:39;;;;;;;10.45;3.17;;;7.70;1.00;;;;;;7373268;19;20484;-72
2024/02/20 02:56:13;;;;;;;6.28;2.88;;;7.70;1.00;;;;;;7373874;19;20082;-71
2024/02/20 02:58:46;;;;;;;7.88;3.15;;;7.70;1.00;;;;;;7370169;19;20006;-72
2024/02/20 03:01:16;;;;;;;8.75;3.42;;;7.70;1.00;;;;;;7373380;19;20027;-72
2024/02/20 03:03:46;;;;;;;6.40;3.17;;;7.70;1.00;;;;;;7371544;19;20014;-71
2024/02/20 03:06:17;;;;;;;7.80;3.65;;;7.70;1.00;;;;;;7372459;19;20014;-71
2024/02/20 03:08:48;;;;;;;10.65;3.85;;;7.60;1.00;;;;;;7370463;19;20011;-71
2024/02/20 03:11:18;;;;;;;9.57;3.05;;;7.70;1.00;;;;;;7372245;19;20025;-71
2024/02/20 03:13:52;;;;;;;7.85;3.47;;;7.60;1.00;;;;;;7370429;19;20006;-72
2024/02/20 03:16:22;;;;;;;9.88;3.08;;;7.70;1.00;;;;;;7371663;19;20383;-73
2024/02/20 03:18:55;;;;;;;11.82;3.13;;;7.70;1.00;;;;;;7371296;19;20018;-71
2024/02/20 03:21:25;;;;;;;10.23;3.00;;;7.60;1.00;;;;;;7372427;19;20023;-70
2024/02/20 03:23:55;;;;;;;7.03;3.28;;;7.60;1.00;;;;;;7372670;19;20039;-70
2024/02/20 03:26:26;;;;;;;13.90;3.38;;;7.60;1.00;;;;;;7372533;19;20077;-71
2024/02/20 03:28:59;;;;;;;8.07;2.80;;;7.60;1.00;;;;;;7372088;19;20014;-71
2024/02/20 03:31:29;;;;;;;6.97;2.55;;;7.60;1.00;;;;;;7374594;19;20018;-71
2024/02/20 03:34:00;;;;;;;7.38;2.95;;;7.50;1.00;;;;;;7381527;19;20014;-73
2024/02/20 03:36:30;;;;;;;9.05;2.95;;;7.50;1.00;;;;;;7377452;19;20021;-73
2024/02/20 03:39:00;;;;;;;11.02;3.10;;;7.50;1.00;;;;;;7372503;19;20079;-72
2024/02/20 03:41:30;;;;;;;6.50;2.80;;;7.60;1.00;;;;;;7374176;19;20475;-73
2024/02/20 03:44:03;;;;;;;6.82;2.92;;;7.50;1.00;;;;;;7372344;19;19998;-73
2024/02/20 03:46:33;;;;;;;8.77;3.50;;;7.50;1.00;;;;;;7373517;19;20021;-73
2024/02/20 03:49:03;;;;;;;9.40;3.50;;;7.50;1.00;;;;;;7370678;19;20011;-71
2024/02/20 03:51:33;;;;;;;10.57;3.67;;;7.50;1.00;;;;;;7372304;19;20506;-72
2024/02/20 03:54:03;;;;;;;15.27;3.53;;;7.50;1.00;;;;;;7371200;19;20491;-72
2024/02/20 03:56:33;;;;;;;5.40;3.63;;;7.50;1.00;;;;;;7371727;19;20021;-72
2024/02/20 03:59:07;;;;;;;7.70;3.33;;;7.50;1.00;;;;;;7372502;19;20259;-71
2024/02/20 04:01:37;;;;;;;9.13;3.50;;;7.40;1.00;;;;;;7371565;19;20018;-72
2024/02/20 04:04:09;;;;;;;7.07;3.63;;;7.40;1.00;;;;;;7371623;19;20010;-71
2024/02/20 04:06:39;;;;;;;6.15;3.47;;;7.40;1.00;;;;;;7371954;19;20010;-72
2024/02/20 04:09:10;;;;;;;8.38;3.42;;;7.40;1.00;;;;;;7372108;19;20081;-70
2024/02/20 04:11:40;;;;;;;6.78;3.20;;;7.40;1.00;;;;;;7373232;19;20007;-71
2024/02/20 04:14:13;;;;;;;11.90;3.97;;;7.40;1.00;;;;;;7371455;19;20023;-71
2024/02/20 04:16:43;;;;;;;5.65;3.17;;;7.30;1.00;;;;;;7368691;19;20077;-71
2024/02/20 04:19:14;;;;;;;9.00;3.45;;;7.30;1.00;;;;;;7371380;19;20020;-71
2024/02/20 04:21:44;;;;;;;10.13;3.10;;;7.30;1.00;;;;;;7371490;19;20010;-71
2024/02/20 04:24:14;;;;;;;11.15;3.58;;;7.20;1.00;;;;;;7369213;19;20014;-72
2024/02/20 04:26:44;;;;;;;10.75;2.90;;;7.20;1.00;;;;;;7369209;19;20006;-73
2024/02/20 04:29:17;;;;;;;7.70;2.70;;;7.20;1.00;;;;;;7367551;19;20098;-73
2024/02/20 04:31:47;;;;;;;7.65;2.75;;;7.10;1.00;;;;;;7368905;19;20014;-72
2024/02/20 04:34:17;;;;;;;14.95;3.65;;;7.10;1.00;;;;;;7370445;19;20007;-72
2024/02/20 04:36:47;;;;;;;10.15;3.50;;;7.10;1.00;;;;;;7371775;19;20018;-72
2024/02/20 04:39:17;;;;;;;7.68;2.90;;;7.10;1.00;;;;;;7371692;19;20439;-72
2024/02/20 04:41:47;;;;;;;11.82;2.97;;;7.00;1.00;;;;;;7372362;19;20010;-72
2024/02/20 04:44:20;;;;;;;9.38;2.78;;;7.00;1.00;;;;;;7369400;19;20015;-72
2024/02/20 04:46:50;;;;;;;11.35;3.33;;;7.00;1.00;;;;;;7370579;19;20019;-71
2024/02/20 04:49:20;;;;;;;10.50;3.15;;;7.10;1.00;;;;;;7371321;19;20107;-70
2024/02/20 04:51:50;;;;;;;9.95;2.80;;;7.00;1.00;;;;;;7372212;19;20374;-72
2024/02/20 04:54:20;;;;;;;10.85;2.55;;;7.10;1.00;;;;;;7370782;19;20011;-71
2024/02/20 04:56:50;;;;;;;15.68;3.28;;;7.00;1.00;;;;;;7370653;19;20006;-71
2024/02/20 04:59:24;;;;;;;11.77;3.38;;;7.10;1.00;;;;;;7370509;19;20035;-71
2024/02/20 05:01:54;;;;;;;14.30;3.42;;;7.10;1.00;;;;;;7370828;19;20480;-71
2024/02/20 05:04:24;;;;;;;12.50;2.97;;;7.10;1.00;;;;;;7369720;19;20421;-71
2024/02/20 05:06:55;;;;;;;15.27;3.42;;;7.10;1.00;;;;;;7370753;19;20010;-73
2024/02/20 05:09:25;;;;;;;12.98;3.40;;;7.10;1.00;;;;;;7368193;19;20021;-71
2024/02/20 05:11:55;;;;;;;9.93;3.05;;;7.10;1.00;;;;;;7369910;19;20010;-72
2024/02/20 05:14:28;;;;;;;6.47;2.83;;;7.10;1.00;;;;;;7369005;19;20343;-72
2024/02/20 05:16:58;;;;;;;11.13;2.75;;;7.10;1.00;;;;;;7368932;19;20024;-73
2024/02/20 05:19:28;;;;;;;8.40;3.05;;;7.10;1.00;;;;;;7370127;19;20017;-72
2024/02/20 05:21:58;;;;;;;9.70;2.90;;;7.10;1.00;;;;;;7367919;19;20018;-72
2024/02/20 05:24:28;;;;;;;12.68;2.95;;;7.10;1.00;;;;;;7369038;19;20051;-71
2024/02/20 05:27:00;;;;;;;6.68;2.90;;;7.00;1.00;;;;;;7367922;19;20637;-70
2024/02/20 05:29:32;;;;;;;12.15;3.63;;;7.00;1.00;;;;;;7371143;19;20086;-71
2024/02/20 05:32:03;;;;;;;9.50;2.50;;;7.10;1.00;;;;;;7368973;19;20117;-71
2024/02/20 05:34:33;;;;;;;9.98;3.30;;;7.20;1.00;;;;;;7367454;19;20101;-71
2024/02/20 05:37:04;;;;;;;10.48;2.97;;;7.10;1.00;;;;;;7367071;19;20022;-71
2024/02/20 05:39:34;;;;;;;11.85;3.53;;;7.00;1.00;;;;;;7368553;19;20029;-71
2024/02/20 05:42:04;;;;;;;12.52;3.22;;;7.00;1.00;;;;;;7367693;19;20113;-70
2024/02/20 05:44:37;;;;;;;11.15;3.30;;;7.00;1.00;;;;;;7367056;19;20055;-70
2024/02/20 05:47:07;;;;;;;8.73;2.70;;;7.00;1.00;;;;;;7365710;19;20021;-70
2024/02/20 05:49:37;;;;;;;12.10;2.92;;;7.00;1.00;;;;;;7367046;19;20083;-70
2024/02/20 05:52:08;;;;;;;16.48;2.70;;;7.00;1.00;;;;;;7368262;19;20011;-70
2024/02/20 05:54:38;;;;;;;11.90;2.95;;;7.00;1.00;;;;;;7367943;19;20119;-70
2024/02/20 05:57:08;;;;;;;9.93;3.22;;;6.90;1.00;;;;;;7367119;19;20346;-72
2024/02/20 05:59:41;;;;;;;11.02;2.92;;;6.90;1.00;;;;;;7369054;19;20040;-72
2024/02/20 06:02:11;;;;;;;9.95;2.90;;;6.90;1.00;;;;;;7375686;19;20023;-71
2024/02/20 06:04:41;;;;;;;8.75;2.75;;;6.90;1.00;;;;;;7375411;19;20014;-71
2024/02/20 06:07:11;;;;;;;9.57;2.92;;;6.90;1.00;;;;;;7367755;19;20368;-71
2024/02/20 06:09:41;;;;;;;12.68;2.78;;;6.90;1.00;;;;;;7368453;19;20021;-71
2024/02/20 06:12:12;;;;;;;9.35;2.67;;;6.90;1.00;;;;;;7367072;19;20504;-71
2024/02/20 06:14:47;;;;;;;10.13;2.80;;;6.80;1.00;;;;;;7366309;19;20355;-71
2024/02/20 06:17:17;;;;;;;11.95;2.80;;;6.80;1.00;;;;;;7368463;19;20002;-72
2024/02/20 06:19:47;;;;;;;7.50;2.63;;;6.80;1.00;;;;;;7372441;19;20002;-71
2024/02/20 06:22:17;;;;;;;13.50;3.25;;;6.80;1.00;;;;;;7375845;19;20023;-72
2024/02/20 06:24:47;;;;;;;8.90;2.97;;;6.80;1.00;;;;;;7375150;19;20594;-72
2024/02/20 06:27:17;;;;;;;11.95;3.20;;;6.80;1.00;;;;;;7374126;19;20026;-72
2024/02/20 06:29:49;;;;;;;10.77;3.30;;;6.80;1.00;;;;;;7375338;19;20515;-72
2024/02/20 06:32:20;;;;;;;10.52;2.90;;;6.70;1.00;;;;;;7375426;19;20011;-71
2024/02/20 06:34:49;;;;;;;9.82;3.40;;;6.80;1.00;;;;;;7376028;19;20011;-72
2024/02/20 06:37:20;;;;;;;12.98;3.13;;;6.70;1.00;;;;;;7374333;19;20014;-72
2024/02/20 06:39:50;;;;;;;7.78;3.25;;;6.70;1.00;;;;;;7376101;19;20010;-71
2024/02/20 06:42:23;;;;;;;15.50;3.65;;;6.70;1.00;;;;;;7374822;19;20041;-71
2024/02/20 06:44:56;;;;;;;11.05;3.58;;;6.70;1.00;;;;;;7376745;19;20024;-72
2024/02/20 06:47:26;;;;;;;8.63;3.55;;;6.80;1.00;;;;;;7373028;19;20448;-72
2024/02/20 06:49:56;;;;;;;12.68;3.88;;;6.70;1.00;;;;;;7374205;19;20084;-71
2024/02/20 06:52:26;;;;;;;13.23;4.25;;;6.80;1.00;;;;;;7375609;19;20089;-71
2024/02/20 06:54:56;;;;;;;10.80;3.58;;;6.70;1.00;;;;;;7372827;19;20014;-70
2024/02/20 06:57:26;;;;;;;15.60;3.28;;;6.80;1.00;;;;;;7374054;19;20010;-71
2024/02/20 06:59:59;;;;;;;16.13;3.55;;;6.70;1.00;;;;;;7373900;19;20610;-71
2024/02/20 07:02:30;;;;;;;9.77;3.30;;;6.80;1.00;;;;;;7374196;19;20023;-72
2024/02/20 07:05:00;;;;;;;9.43;3.15;;;6.80;1.00;;;;;;7373699;19;20006;-72
2024/02/20 07:07:30;;;;;;;13.07;3.47;;;6.80;1.00;;;;;;7372318;19;20021;-72
2024/02/20 07:10:00;;;;;;;10.10;3.30;;;6.80;1.00;;;;;;7372898;19;20046;-72
2024/02/20 07:12:30;;;;;;;12.85;3.00;;;6.80;1.00;;;;;;7373319;19;20022;-72
2024/02/20 07:15:05;;;;;;;12.73;3.60;;;6.90;1.00;;;;;;7371081;19;20078;-71
2024/02/20 07:17:37;;;;;;;15.32;3.95;;;6.80;1.00;;;;;;7368526;19;20082;-72
2024/02/20 07:20:09;;;;;;;13.13;4.72;;;6.90;1.00;;;;;;7370664;19;20463;-70
2024/02/20 07:22:39;;;;;;;12.55;3.88;;;6.90;1.00;;;;;;7370769;19;20018;-71
2024/02/20 07:25:10;;;;;;;15.23;4.63;;;6.90;1.00;;;;;;7371940;19;20041;-72
2024/02/20 07:27:40;;;;;;;20.70;4.88;;;6.90;1.00;;;;;;7371038;19;20007;-72
2024/02/20 07:30:14;;;;;;;13.88;3.85;;;6.90;1.00;;;;;;7371714;19;20370;-71
2024/02/20 07:32:44;;;;;;;13.95;3.75;;;6.90;1.00;;;;;;7369145;19;20015;-72
2024/02/20 07:35:17;;;;;;;13.32;3.45;;;6.90;1.00;;;;;;7371646;19;20036;-71
2024/02/20 07:37:48;;;;;;;8.00;3.38;;;6.90;1.00;;;;;;7371827;19;20098;-71
2024/02/20 07:40:18;;;;;;;10.90;3.80;;;6.90;1.00;;;;;;7371903;19;20574;-72
2024/02/20 07:42:48;;;;;;;14.77;4.28;;;6.90;1.00;;;;;;7371270;19;20015;-72
2024/02/20 07:45:21;;;;;;;11.10;3.85;;;6.90;1.00;;;;;;7371322;19;20014;-73
2024/02/20 07:47:52;;;;;;;9.65;3.40;;;6.80;1.00;;;;;;7370598;19;20460;-70
2024/02/20 07:50:22;;;;;;;11.85;3.65;;;6.90;1.00;;;;;;7371439;19;20011;-71
2024/02/20 07:52:55;;;;;;;13.48;3.78;;;6.80;1.00;;;;;;7371116;19;20010;-71
2024/02/20 07:55:26;;;;;;;12.35;3.72;;;6.90;1.00;;;;;;7370914;19;20113;-70
2024/02/20 07:57:57;;;;;;;10.30;3.90;;;6.90;1.00;;;;;;7369658;19;20015;-70
2024/02/20 08:00:30;;;;;;;11.38;4.05;;;6.90;1.00;;;;;;7370762;19;20030;-70
2024/02/20 08:03:00;;;;;;;12.07;4.03;;;6.80;1.00;;;;;;7369126;19;20007;-70
2024/02/20 08:05:30;;;;;;;11.10;3.70;;;6.90;1.00;;;;;;7370926;19;20010;-73
2024/02/20 08:08:00;;;;;;;10.05;4.22;;;6.90;1.00;;;;;;7369002;19;20019;-70
2024/02/20 08:10:30;;;;;;;14.23;4.43;;;7.00;1.00;;;;;;7371172;19;20089;-71
2024/02/20 08:13:00;;;;;;;9.70;4.40;;;7.00;1.00;;;;;;7370176;19;20038;-70
2024/02/20 08:15:33;;;;;;;11.60;4.57;;;7.30;1.00;;;;;;7370394;19;20387;-71
2024/02/20 08:18:04;;;;;;;13.55;4.43;;;7.50;1.00;;;;;;7369604;19;20094;-72
2024/02/20 08:20:34;;;;;;;15.10;4.78;;;7.50;1.00;;;;;;7370431;19;20475;-71
2024/02/20 08:23:04;;;;;;;10.02;4.35;;;7.70;1.00;;;;;;7370039;19;20055;-69
2024/02/20 08:25:34;;;;;;;10.20;4.18;;;7.90;1.00;;;;;;7370244;19;20022;-71
2024/02/20 08:28:04;;;;;;;11.68;4.00;;;7.70;1.00;;;;;;7369763;19;20010;-71
2024/02/20 08:30:37;;;;;;;18.85;4.78;;;7.80;1.00;;;;;;7376049;19;20015;-70
2024/02/20 08:33:06;;;;;;;13.48;4.20;;;8.00;1.00;;;;;;7376612;19;20010;-70
2024/02/20 08:35:37;;;;;;;15.82;4.68;;;7.80;1.00;;;;;;7370068;19;20010;-71
2024/02/20 08:38:07;;;;;;;11.82;3.92;;;7.90;1.00;;;;;;7369873;19;20010;-71
2024/02/20 08:40:37;;;;;;;12.10;3.22;;;8.10;1.00;;;;;;7369628;19;20022;-71
2024/02/20 08:43:07;;;;;;;10.82;3.72;;;7.70;1.00;;;;;;7371893;19;20110;-70
2024/02/20 08:45:40;;;;;;;14.07;4.47;;;8.00;1.00;;;;;;7371450;19;20040;-72
2024/02/20 08:48:10;;;;;;;8.48;3.45;;;8.50;1.00;;;;;;7369552;19;20002;-71
2024/02/20 08:50:41;;;;;;;12.75;3.80;;;8.50;1.00;;;;;;7371187;19;20106;-72
2024/02/20 08:53:12;;;;;;;11.88;4.00;;;8.50;1.00;;;;;;7370051;19;20023;-70
2024/02/20 08:55:42;;;;;;;13.35;4.10;;;8.60;1.00;;;;;;7370170;19;20079;-71
2024/02/20 08:58:14;;;;;;;16.60;4.80;;;8.40;1.00;;;;;;7371037;19;20015;-71
2024/02/20 09:00:47;;;;;;;14.00;3.63;;;8.10;1.00;;;;;;7372666;19;20036;-73
2024/02/20 09:03:18;;;;;;;14.68;3.63;;;8.10;1.00;;;;;;7368465;19;20006;-71
2024/02/20 09:05:48;;;;;;;16.70;3.97;;;7.90;1.00;;;;;;7370430;19;20405;-71
2024/02/20 09:08:18;;;;;;;16.77;3.92;;;8.30;1.00;;;;;;7369711;19;20032;-71
2024/02/20 09:10:48;;;;;;;14.38;4.63;;;8.20;1.00;;;;;;7370257;19;20385;-71
2024/02/20 09:13:18;;;;;;;12.18;4.13;;;8.40;1.00;;;;;;7369051;19;20010;-72
2024/02/20 09:15:51;;;;;;;12.07;4.28;;;8.30;1.00;;;;;;7369255;19;20407;-77
2024/02/20 09:18:22;;;;;;;16.02;5.15;;;8.20;1.00;;;;;;7367402;19;20011;-72
2024/02/20 09:20:52;;;;;;;13.00;4.72;;;8.60;1.00;;;;;;7367404;19;20487;-71
2024/02/20 09:23:22;;;;;;;17.80;4.90;;;8.70;1.00;;;;;;7368262;19;20490;-72
2024/02/20 09:25:53;;;;;;;15.65;4.85;;;8.70;1.00;;;;;;7367497;19;20007;-72
2024/02/20 09:28:23;;;;;;;8.70;4.13;;;8.60;1.00;;;;;;7367065;19;20071;-72
2024/02/20 09:30:56;;;;;;;16.38;4.40;;;8.50;1.00;;;;;;7369570;19;20014;-72
2024/02/20 09:33:26;;;;;;;18.42;4.55;;;8.50;1.00;;;;;;7368375;19;20010;-71
2024/02/20 09:35:56;;;;;;;16.20;5.07;;;8.60;1.00;;;;;;7369018;19;20353;-70
2024/02/20 09:38:26;;;;;;;13.00;4.80;;;8.50;1.00;;;;;;7368249;19;20022;-71
2024/02/20 09:40:56;;;;;;;15.57;4.93;;;8.40;1.00;;;;;;7367461;19;20050;-70
2024/02/20 09:43:27;;;;;;;15.93;5.65;;;8.70;1.00;;;;;;7365680;19;20228;-71
2024/02/20 09:46:05;;;;;;;14.18;4.57;;;9.00;1.00;;;;;;7366832;19;20493;-70
2024/02/20 09:48:35;;;;;;;15.55;4.80;;;8.70;1.00;;;;;;7368205;19;20010;-71
2024/02/20 09:51:06;;;;;;;13.32;5.05;;;8.70;1.00;;;;;;7368688;19;20089;-71
2024/02/20 09:53:40;;;;;;;15.57;4.95;;;8.50;1.00;;;;;;7365043;19;20102;-71
2024/02/20 09:56:11;;;;;;;17.65;4.50;;;8.90;1.00;;;;;;7367801;19;20027;-71
2024/02/20 09:58:41;;;;;;;15.95;7.63;;;8.90;1.00;;;;;;7367452;19;20022;-73
2024/02/20 10:01:14;;;;;;;18.52;5.10;;;9.40;1.00;;;;;;7367702;19;20030;-70
2024/02/20 10:03:46;;;;;;;15.43;4.88;;;9.30;1.00;;;;;;7366773;19;20381;-71
2024/02/20 10:06:17;;;;;;;14.50;4.55;;;9.20;1.00;;;;;;7366380;19;20102;-70
2024/02/20 10:08:53;;;;;;;13.85;4.78;;;9.10;1.00;;;;;;7366451;19;20042;-71
2024/02/20 10:11:23;;;;;;;15.45;5.00;;;9.20;1.00;;;;;;7368039;19;20478;-70
2024/02/20 10:13:55;;;;;;;16.13;4.68;;;8.80;1.00;;;;;;7368440;19;20478;-71
2024/02/20 10:16:29;;;;;;;12.40;4.75;;;8.80;1.00;;;;;;7368710;19;20050;-70
2024/02/20 10:18:59;;;;;;;12.65;5.00;;;9.00;1.00;;;;;;7368064;19;20432;-72
2024/02/20 10:21:31;;;;;;;11.75;5.15;;;9.10;1.00;;;;;;7366428;19;20010;-72
2024/02/20 10:24:06;;;;;;;10.05;4.05;;;9.10;1.00;;;;;;7365740;19;20011;-70
2024/02/20 10:26:47;;;;;;;12.82;4.63;;;9.00;1.00;;;;;;7365199;19;20021;-71
2024/02/20 10:29:17;;;;;;;17.45;5.07;;;9.10;1.00;;;;;;7366826;19;22400;-72
2024/02/20 10:31:50;;;;;;;11.57;3.70;;;9.40;1.00;;;;;;7366450;19;24400;-71
2024/02/20 10:34:22;;;;;;;11.85;4.50;;;9.10;1.00;;;;;;7365349;19;20502;-71
2024/02/20 10:36:52;;;;;;;18.25;5.45;;;9.20;1.00;;;;;;7366034;19;20056;-71
2024/02/20 10:39:24;;;;;;;13.20;4.78;;;9.40;1.00;;;;;;7367393;19;20006;-71
2024/02/20 10:41:56;;;;;;;15.82;4.38;;;9.60;1.00;;;;;;7366816;19;20006;-71
2024/02/20 10:44:26;;;;;;;16.20;4.85;;;9.80;1.00;;;;;;7366828;19;20036;-72
2024/02/20 10:47:00;;;;;;;19.17;4.32;;;9.80;1.00;;;;;;7366530;19;20050;-72
2024/02/20 10:49:33;;;;;;;13.38;4.85;;;10.00;1.00;;;;;;7366198;19;20048;-71
2024/02/20 10:52:05;;;;;;;20.45;5.15;;;9.50;1.00;;;;;;7367300;19;20007;-71
2024/02/20 10:54:36;;;;;;;8.82;3.67;;;9.60;1.00;;;;;;7364355;19;20021;-71
2024/02/20 10:57:16;;;;;;;18.23;4.97;;;9.40;1.00;;;;;;7366735;19;20062;-71
2024/02/20 10:59:47;;;;;;;15.43;5.03;;;9.60;1.00;;;;;;7372419;19;20011;-71
2024/02/20 11:02:20;;;;;;;13.30;3.95;;;9.90;1.00;;;;;;7376163;19;20014;-72
2024/02/20 11:04:51;;;;;;;13.18;4.18;;;10.30;1.00;;;;;;7364699;19;20006;-70
2024/02/20 11:07:22;;;;;;;12.30;3.95;;;10.30;1.00;;;;;;7370778;19;20028;-70
2024/02/20 11:10:10;;;;;;;12.13;4.18;;;10.10;1.00;;;;;;7373950;19;20010;-71
2024/02/20 11:12:40;;;;;;;14.32;3.97;;;10.30;1.00;;;;;;6862338;19;2003846;-72
2024/02/20 11:15:14;;;;;;;11.35;4.20;;;10.30;1.00;;;;;;7372930;19;20010;-70
2024/02/20 11:17:50;;;;;;;12.30;3.75;;;10.60;1.00;;;;;;7371361;19;20046;-72
2024/02/20 11:20:23;;;;;;;14.68;3.92;;;10.40;1.00;;;;;;7372576;19;20011;-72
2024/02/20 11:22:54;;;;;;;13.05;3.72;;;10.10;1.00;;;;;;7371687;19;20469;-72
2024/02/20 11:25:31;;;;;;;9.15;3.20;;;10.80;1.00;;;;;;7370633;19;20373;-71
2024/02/20 11:28:06;;;;;;;13.32;3.58;;;10.70;1.00;;;;;;7367279;19;20007;-72
2024/02/20 11:30:37;;;;;;;13.48;4.47;;;10.80;1.00;;;;;;7363801;19;20014;-76
2024/02/20 11:33:15;;;;;;;12.63;3.40;;;10.80;1.00;;;;;;7362102;19;20038;-73
2024/02/20 11:35:49;;;;;;;15.20;3.63;;;10.80;1.00;;;;;;7363736;19;20010;-75
2024/02/20 11:38:23;;;;;;;10.80;2.97;;;10.70;1.00;;;;;;7361483;19;20050;-73
2024/02/20 11:40:54;;;;;;;12.20;4.13;;;11.20;1.00;;;;;;7360044;19;22436;-73
2024/02/20 11:43:25;;;;;;;11.18;3.30;;;10.90;1.00;;;;;;7365263;19;20384;-72
2024/02/20 11:46:01;;;;;;;10.75;3.25;;;10.70;1.00;;;;;;7360291;19;20015;-73
2024/02/20 11:48:37;;;;;;;9.68;2.25;;;10.40;1.00;;;;;;7365184;19;20502;-72
2024/02/20 11:51:09;;;;;;;10.70;2.78;;;10.50;1.00;;;;;;7362555;19;20093;-73
2024/02/20 11:53:39;;;;;;;11.27;2.75;;;10.60;1.00;;;;;;7367047;19;20451;-71
2024/02/20 11:56:10;;;;;;;8.20;2.72;;;10.30;1.00;;;;;;7357480;19;20026;-71
2024/02/20 11:58:41;;;;;;;9.00;3.03;;;9.90;1.00;;;;;;7368294;19;20015;-72
2024/02/20 12:01:12;;;;;;;10.23;2.70;;;10.10;1.00;;;;;;7364182;19;20033;-71
2024/02/20 12:03:45;;;;;;;8.88;2.50;;;10.10;1.00;;;;;;7361259;19;20379;-73
2024/02/20 12:06:16;;;;;;;12.13;2.85;;;10.40;1.00;;;;;;7361682;19;20010;-73
2024/02/20 12:08:53;;;;;;;10.23;2.20;;;10.40;1.00;;;;;;7360642;19;20014;-74
2024/02/20 12:11:26;;;;;;;10.85;2.53;;;10.10;1.00;;;;;;7361793;19;20018;-72
2024/02/20 12:13:59;;;;;;;6.97;2.40;;;10.40;1.00;;;;;;7359295;19;20545;-72
2024/02/20 12:16:36;;;;;;;7.00;2.10;;;10.80;1.00;;;;;;7356758;19;20006;-73
2024/02/20 12:19:10;;;;;;;12.02;3.30;;;10.30;1.00;;;;;;7360375;19;20505;-72
2024/02/20 12:21:55;;;;;;;7.90;2.45;;;11.00;1.00;;;;;;6956620;19;2003987;-72
2024/02/20 12:24:26;;;;;;;9.95;3.30;;;11.10;1.00;;;;;;7360035;19;20014;-72
2024/02/20 12:26:58;;;;;;;7.65;2.42;;;10.90;1.00;;;;;;7356583;19;20730;-73
2024/02/20 12:29:28;;;;;;;9.82;3.05;;;11.30;1.00;;;;;;7359096;19;20122;-72
2024/02/20 12:31:59;;;;;;;10.30;2.50;;;11.40;1.00;;;;;;7361297;19;20010;-71
2024/02/20 12:34:33;;;;;;;8.77;2.47;;;11.50;1.00;;;;;;7361367;19;20011;-72
2024/02/20 12:37:15;;;;;;;10.65;2.47;;;11.60;1.00;;;;;;7259794;19;2003850;-72
2024/02/20 12:39:46;;;;;;;8.63;2.78;;;11.10;1.00;;;;;;7363541;19;20024;-72
2024/02/20 12:42:18;;;;;;;11.55;3.45;;;10.90;1.00;;;;;;7356991;19;20006;-72
2024/02/20 12:44:51;;;;;;;11.27;3.17;;;11.20;1.00;;;;;;7355351;19;20018;-73
2024/02/20 12:47:22;;;;;;;15.13;4.18;;;11.30;1.00;;;;;;7358211;19;20018;-73
2024/02/20 12:49:56;;;;;;;12.13;3.13;;;11.40;1.00;;;;;;7362517;19;20489;-72
2024/02/20 12:52:29;;;;;;;11.52;3.35;;;11.30;1.00;;;;;;7367004;19;20010;-72
2024/02/20 12:54:59;;;;;;;8.60;2.97;;;11.10;1.00;;;;;;7368675;19;20011;-71
2024/02/20 12:57:29;;;;;;;9.63;3.58;;;11.00;1.00;;;;;;7367463;19;20011;-70
2024/02/20 12:59:59;;;;;;;8.55;3.15;;;10.90;1.00;;;;;;7368438;19;20010;-71
2024/02/20 13:02:29;;;;;;;7.93;2.92;;;11.10;1.00;;;;;;7368131;19;20019;-71
2024/02/20 13:05:02;;;;;;;26.70;3.20;;;11.30;1.00;;;;;;7367850;19;20017;-71
2024/02/20 13:07:32;;;;;;;10.57;3.42;;;10.80;1.00;;;;;;7367398;19;20121;-71
2024/02/20 13:10:02;;;;;;;8.75;3.13;;;10.90;1.00;;;;;;7369346;19;20078;-71
2024/02/20 13:12:32;;;;;;;10.88;3.28;;;10.50;1.00;;;;;;7369205;19;20023;-71
2024/02/20 13:15:03;;;;;;;10.55;2.88;;;10.20;1.00;;;;;;7368486;19;20017;-71
2024/02/20 13:17:33;;;;;;;9.60;3.17;;;9.80;1.00;;;;;;7370597;19;20017;-73